createdAt,value
2018-11-25T00:00:11.337Z,59.30
2018-11-25T00:02:39.891Z,64.67
2018-11-25T00:05:09.244Z,66.60
2018-11-25T00:07:37.722Z,65.07
2018-11-25T00:10:07.056Z,63.07
2018-11-25T00:12:35.549Z,59.83
2018-11-25T00:15:04.269Z,57.97
2018-11-25T00:17:32.782Z,61.30
2018-11-25T00:20:01.299Z,65.43
2018-11-25T00:22:29.859Z,64.87
2018-11-25T00:24:58.317Z,62.57
2018-11-25T00:27:26.793Z,63.17
2018-11-25T00:29:55.826Z,60.07
2018-11-25T00:32:24.408Z,60.50
2018-11-25T00:34:52.848Z,61.60
2018-11-25T00:37:21.293Z,60.90
2018-11-25T00:39:49.772Z,58.30
2018-11-25T00:42:18.229Z,60.97
2018-11-25T00:44:46.693Z,62.43
2018-11-25T00:47:15.136Z,59.37
2018-11-25T00:49:43.733Z,64.63
2018-11-25T00:52:13.164Z,64.87
2018-11-25T00:54:41.644Z,63.77
2018-11-25T00:57:10.092Z,66.23
2018-11-25T00:59:38.528Z,62.17
2018-11-25T01:02:07.012Z,64.20
2018-11-25T01:04:35.447Z,64.87
2018-11-25T01:07:04.031Z,67.10
2018-11-25T01:09:32.485Z,64.60
2018-11-25T01:12:01.589Z,65.90
2018-11-25T01:14:30.045Z,65.60
2018-11-25T01:16:58.494Z,66.03
2018-11-25T01:19:26.941Z,65.30
2018-11-25T01:21:55.460Z,64.47
2018-11-25T01:24:23.928Z,62.87
2018-11-25T01:26:52.466Z,60.50
2018-11-25T01:29:25.107Z,60.27
2018-11-25T01:31:53.617Z,58.00
2018-11-25T01:34:22.060Z,58.60
2018-11-25T01:36:50.506Z,63.10
2018-11-25T01:39:18.949Z,59.33
2018-11-25T01:41:47.530Z,59.60
2018-11-25T01:44:15.960Z,63.40
2018-11-25T01:46:44.475Z,63.87
2018-11-25T01:49:12.926Z,66.97
2018-11-25T01:51:41.365Z,67.33
2018-11-25T01:54:09.805Z,71.90
2018-11-25T01:56:38.380Z,69.80
2018-11-25T01:59:06.870Z,70.17
2018-11-25T02:01:35.384Z,68.50
2018-11-25T02:04:03.874Z,66.03
2018-11-25T02:06:32.323Z,67.23
2018-11-25T02:09:00.766Z,65.10
2018-11-25T02:11:29.364Z,63.67
2018-11-25T02:13:57.813Z,62.80
2018-11-25T02:16:26.442Z,64.87
2018-11-25T02:18:54.951Z,61.30
2018-11-25T02:21:23.406Z,63.37
2018-11-25T02:23:51.853Z,63.87
2018-11-25T02:26:20.277Z,63.17
2018-11-25T02:28:48.712Z,62.53
2018-11-25T02:31:17.181Z,63.50
2018-11-25T02:33:45.637Z,64.37
2018-11-25T02:36:14.085Z,61.30
2018-11-25T02:38:42.547Z,59.77
2018-11-25T02:41:11.017Z,54.70
2018-11-25T02:43:39.649Z,54.23
2018-11-25T02:46:08.090Z,52.83
2018-11-25T02:48:37.115Z,56.60
2018-11-25T02:51:05.554Z,51.67
2018-11-25T02:53:34.007Z,53.23
2018-11-25T02:56:02.941Z,54.17
2018-11-25T02:58:31.387Z,52.27
2018-11-25T03:01:04.051Z,51.90
2018-11-25T03:03:32.642Z,53.13
2018-11-25T03:06:01.088Z,48.43
2018-11-25T03:08:29.545Z,48.43
2018-11-25T03:10:58.125Z,49.40
2018-11-25T03:13:26.689Z,50.67
2018-11-25T03:15:55.130Z,45.83
2018-11-25T03:18:23.694Z,44.87
2018-11-25T03:20:52.132Z,44.30
2018-11-25T03:23:20.612Z,45.77
2018-11-25T03:25:49.076Z,45.97
2018-11-25T03:28:17.514Z,44.63
2018-11-25T03:30:45.932Z,45.70
2018-11-25T03:33:14.415Z,45.03
2018-11-25T03:35:42.833Z,43.73
2018-11-25T03:38:11.788Z,43.30
2018-11-25T03:40:40.209Z,45.27
2018-11-25T03:43:08.774Z,41.67
2018-11-25T03:45:37.211Z,41.43
2018-11-25T03:48:05.715Z,43.23
2018-11-25T03:50:34.169Z,42.30
2018-11-25T03:53:02.760Z,42.77
2018-11-25T03:55:31.207Z,44.20
2018-11-25T03:58:00.541Z,46.17
2018-11-25T04:00:29.242Z,44.17
2018-11-25T04:02:57.927Z,46.50
2018-11-25T04:05:26.440Z,42.17
2018-11-25T04:07:54.875Z,42.57
2018-11-25T04:10:23.386Z,44.83
2018-11-25T04:12:51.808Z,43.23
2018-11-25T04:15:20.497Z,45.13
2018-11-25T04:17:49.106Z,43.20
2018-11-25T04:20:19.569Z,42.27
2018-11-25T04:22:48.378Z,44.07
2018-11-25T04:25:16.812Z,43.30
2018-11-25T04:27:45.271Z,44.50
2018-11-25T04:30:14.617Z,45.47
2018-11-25T04:32:43.481Z,44.33
2018-11-25T04:35:12.653Z,43.53
2018-11-25T04:37:41.249Z,45.70
2018-11-25T04:40:10.946Z,47.53
2018-11-25T04:42:39.423Z,46.03
2018-11-25T04:45:13.329Z,48.43
2018-11-25T04:47:41.903Z,44.40
2018-11-25T04:50:12.939Z,46.00
2018-11-25T04:52:41.374Z,43.37
2018-11-25T04:55:10.041Z,44.23
2018-11-25T04:57:38.503Z,47.77
2018-11-25T05:00:12.133Z,45.00
2018-11-25T05:02:41.401Z,49.40
2018-11-25T05:05:11.750Z,45.57
2018-11-25T05:07:40.377Z,46.87
2018-11-25T05:10:10.727Z,47.17
2018-11-25T05:12:40.183Z,46.10
2018-11-25T05:15:11.438Z,46.20
2018-11-25T05:17:39.972Z,46.73
2018-11-25T05:20:10.689Z,46.23
2018-11-25T05:22:39.164Z,46.53
2018-11-25T05:25:09.614Z,46.60
2018-11-25T05:27:38.261Z,47.33
2018-11-25T05:30:09.776Z,46.27
2018-11-25T05:32:38.260Z,46.03
2018-11-25T05:35:08.326Z,45.33
2018-11-25T05:37:36.798Z,45.80
2018-11-25T05:40:06.467Z,45.60
2018-11-25T05:42:34.914Z,43.97
2018-11-25T05:45:03.364Z,47.07
2018-11-25T05:47:31.856Z,45.30
2018-11-25T05:50:00.280Z,47.30
2018-11-25T05:52:28.784Z,43.67
2018-11-25T05:54:57.228Z,44.57
2018-11-25T05:57:35.931Z,43.90
2018-11-25T06:00:05.286Z,43.63
2018-11-25T06:02:33.750Z,43.90
2018-11-25T06:05:02.210Z,43.73
2018-11-25T06:07:30.882Z,43.17
2018-11-25T06:09:59.362Z,45.60
2018-11-25T06:12:27.809Z,43.97
2018-11-25T06:14:56.325Z,42.83
2018-11-25T06:17:24.761Z,45.20
2018-11-25T06:19:53.223Z,42.70
2018-11-25T06:22:21.619Z,44.23
2018-11-25T06:24:50.254Z,41.07
2018-11-25T06:27:18.845Z,43.47
2018-11-25T06:29:47.299Z,42.80
2018-11-25T06:32:15.748Z,43.20
2018-11-25T06:34:44.340Z,43.17
2018-11-25T06:37:12.884Z,44.83
2018-11-25T06:39:41.335Z,42.53
2018-11-25T06:42:09.909Z,44.43
2018-11-25T06:44:38.491Z,42.97
2018-11-25T06:47:07.250Z,44.03
2018-11-25T06:49:35.673Z,44.43
2018-11-25T06:52:04.105Z,44.20
2018-11-25T06:54:32.568Z,44.80
2018-11-25T06:57:02.000Z,42.63
2018-11-25T06:59:30.462Z,44.13
2018-11-25T07:01:58.934Z,42.00
2018-11-25T07:04:27.373Z,43.93
2018-11-25T07:06:55.780Z,44.90
2018-11-25T07:09:24.255Z,43.73
2018-11-25T07:11:52.685Z,42.90
2018-11-25T07:14:21.211Z,44.77
2018-11-25T07:16:49.905Z,44.50
2018-11-25T07:19:18.382Z,44.27
2018-11-25T07:21:47.156Z,42.73
2018-11-25T07:24:15.584Z,44.30
2018-11-25T07:26:44.192Z,45.00
2018-11-25T07:29:12.663Z,43.40
2018-11-25T07:31:41.149Z,43.77
2018-11-25T07:34:09.672Z,43.90
2018-11-25T07:36:38.183Z,44.60
2018-11-25T07:39:07.603Z,45.03
2018-11-25T07:41:36.056Z,45.20
2018-11-25T07:44:04.683Z,44.90
2018-11-25T07:46:33.750Z,45.43
2018-11-25T07:49:03.007Z,44.37
2018-11-25T07:51:31.884Z,44.20
2018-11-25T07:54:00.317Z,45.57
2018-11-25T07:56:28.834Z,46.67
2018-11-25T07:58:57.302Z,44.43
2018-11-25T08:01:25.764Z,45.70
2018-11-25T08:03:54.320Z,45.53
2018-11-25T08:06:22.762Z,44.80
2018-11-25T08:08:51.276Z,44.50
2018-11-25T08:11:19.761Z,45.23
2018-11-25T08:13:48.256Z,44.10
2018-11-25T08:16:16.772Z,44.40
2018-11-25T08:18:45.658Z,44.73
2018-11-25T08:21:14.200Z,42.93
2018-11-25T08:23:42.644Z,45.47
2018-11-25T08:26:11.095Z,45.80
2018-11-25T08:28:39.639Z,45.53
2018-11-25T08:31:08.982Z,45.90
2018-11-25T08:33:37.444Z,47.83
2018-11-25T08:36:06.523Z,46.87
2018-11-25T08:38:35.042Z,48.67
2018-11-25T08:41:03.489Z,47.10
2018-11-25T08:43:32.970Z,46.03
2018-11-25T08:46:01.423Z,48.13
2018-11-25T08:48:29.956Z,48.10
2018-11-25T08:50:58.525Z,48.00
2018-11-25T08:53:27.056Z,46.33
2018-11-25T08:55:55.511Z,48.83
2018-11-25T08:58:24.004Z,48.42
2018-11-25T09:00:52.722Z,49.40
2018-11-25T09:03:21.231Z,48.37
2018-11-25T09:05:49.680Z,50.23
2018-11-25T09:08:18.224Z,48.97
2018-11-25T09:10:47.364Z,49.63
2018-11-25T09:13:15.869Z,49.03
2018-11-25T09:15:44.353Z,49.87
2018-11-25T09:18:12.873Z,48.27
2018-11-25T09:20:41.390Z,49.93
2018-11-25T09:23:09.995Z,48.67
2018-11-25T09:25:38.528Z,49.50
2018-11-25T09:28:06.978Z,46.30
2018-11-25T09:30:35.498Z,48.57
2018-11-25T09:33:04.042Z,46.70
2018-11-25T09:35:33.146Z,49.03
2018-11-25T09:38:01.704Z,50.23
2018-11-25T09:40:30.266Z,51.10
2018-11-25T09:42:59.306Z,50.13
2018-11-25T09:45:27.751Z,51.57
2018-11-25T09:47:56.268Z,53.77
2018-11-25T09:50:24.972Z,51.50
2018-11-25T09:52:53.530Z,51.90
2018-11-25T09:55:23.111Z,52.53
2018-11-25T09:57:53.803Z,53.27
2018-11-25T10:00:25.459Z,53.40
2018-11-25T10:02:54.075Z,56.57
2018-11-25T10:05:22.569Z,57.13
2018-11-25T10:07:51.146Z,54.87
2018-11-25T10:10:21.124Z,58.10
2018-11-25T10:12:49.612Z,56.67
2018-11-25T10:15:20.133Z,58.43
2018-11-25T10:17:48.620Z,58.63
2018-11-25T10:20:19.244Z,56.67
2018-11-25T10:22:47.733Z,58.50
2018-11-25T10:25:16.841Z,59.73
2018-11-25T10:27:45.442Z,61.50
2018-11-25T10:30:15.994Z,60.47
2018-11-25T10:32:44.825Z,58.57
2018-11-25T10:35:13.357Z,59.17
2018-11-25T10:37:41.781Z,61.47
2018-11-25T10:40:11.464Z,62.23
2018-11-25T10:42:43.581Z,60.57
2018-11-25T10:45:16.738Z,64.05
2018-11-25T10:47:45.244Z,62.40
2018-11-25T10:50:14.714Z,63.07
2018-11-25T10:52:43.297Z,62.30
2018-11-25T10:55:14.681Z,63.53
2018-11-25T10:57:44.102Z,62.70
2018-11-25T11:00:21.488Z,63.67
2018-11-25T11:02:54.174Z,66.87
2018-11-25T11:05:28.024Z,64.40
2018-11-25T11:07:56.543Z,62.63
2018-11-25T11:10:25.090Z,63.23
2018-11-25T11:12:54.064Z,62.73
2018-11-25T11:15:22.524Z,66.40
2018-11-25T11:17:51.059Z,65.63
2018-11-25T11:20:19.631Z,65.97
2018-11-25T11:22:48.089Z,64.93
2018-11-25T11:25:16.580Z,66.27
2018-11-25T11:27:45.041Z,66.70
2018-11-25T11:30:13.708Z,67.17
2018-11-25T11:32:46.576Z,67.00
2018-11-25T11:35:15.043Z,65.53
2018-11-25T11:37:43.616Z,66.40
2018-11-25T11:40:13.340Z,62.63
2018-11-25T11:42:41.856Z,64.43
2018-11-25T11:45:13.322Z,66.33
2018-11-25T11:47:42.480Z,66.00
2018-11-25T11:50:12.433Z,67.27
2018-11-25T11:52:41.080Z,65.47
2018-11-25T11:55:10.917Z,66.53
2018-11-25T11:57:40.026Z,65.90
2018-11-25T12:00:14.260Z,64.80
2018-11-25T12:02:42.734Z,66.67
2018-11-25T12:05:11.250Z,65.33
2018-11-25T12:07:39.912Z,62.77
2018-11-25T12:10:10.566Z,65.60
2018-11-25T12:12:39.692Z,65.17
2018-11-25T12:15:13.565Z,62.97
2018-11-25T12:17:42.069Z,67.57
2018-11-25T12:20:10.986Z,63.93
2018-11-25T12:22:39.632Z,67.80
2018-11-25T12:25:10.476Z,69.73
2018-11-25T12:27:39.041Z,70.90
2018-11-25T12:30:09.879Z,64.50
2018-11-25T12:32:38.551Z,67.13
2018-11-25T12:35:07.846Z,66.63
2018-11-25T12:37:36.495Z,72.57
2018-11-25T12:40:12.089Z,66.60
2018-11-25T12:42:41.244Z,67.03
2018-11-25T12:45:11.605Z,66.17
2018-11-25T12:47:40.068Z,68.57
2018-11-25T12:50:10.160Z,67.93
2018-11-25T12:52:38.683Z,70.07
2018-11-25T12:55:09.380Z,70.47
2018-11-25T12:57:38.013Z,72.47
2018-11-25T13:00:16.817Z,68.90
2018-11-25T13:02:45.554Z,70.57
2018-11-25T13:05:14.808Z,66.40
2018-11-25T13:07:43.351Z,69.97
2018-11-25T13:10:11.889Z,67.47
2018-11-25T13:12:40.351Z,68.50
2018-11-25T13:15:09.366Z,70.97
2018-11-25T13:17:38.286Z,65.57
2018-11-25T13:20:13.603Z,68.77
2018-11-25T13:22:42.203Z,67.30
2018-11-25T13:25:12.357Z,67.77
2018-11-25T13:27:40.874Z,72.63
2018-11-25T13:30:43.900Z,67.63
2018-11-25T13:33:13.195Z,65.40
2018-11-25T13:35:41.714Z,65.73
2018-11-25T13:38:10.475Z,64.70
2018-11-25T13:40:39.017Z,59.93
2018-11-25T13:43:07.897Z,66.17
2018-11-25T13:45:36.383Z,64.27
2018-11-25T13:48:05.253Z,63.90
2018-11-25T13:50:34.251Z,61.93
2018-11-25T13:53:03.044Z,63.70
2018-11-25T13:55:31.940Z,64.40
2018-11-25T13:58:00.451Z,60.50
2018-11-25T14:00:38.833Z,60.83
2018-11-25T14:03:09.369Z,60.67
2018-11-25T14:05:38.011Z,60.60
2018-11-25T14:08:07.616Z,61.03
2018-11-25T14:10:36.115Z,62.23
2018-11-25T14:13:05.175Z,62.50
2018-11-25T14:15:33.671Z,61.50
2018-11-25T14:18:02.166Z,62.03
2018-11-25T14:20:30.806Z,62.80
2018-11-25T14:22:59.326Z,60.03
2018-11-25T14:25:28.060Z,61.93
2018-11-25T14:27:58.925Z,63.63
2018-11-25T14:30:28.920Z,63.43
2018-11-25T14:32:57.422Z,65.90
2018-11-25T14:35:25.946Z,64.53
2018-11-25T14:37:54.374Z,62.17
2018-11-25T14:40:22.852Z,63.00
2018-11-25T14:42:51.451Z,63.00
2018-11-25T14:45:19.940Z,61.87
2018-11-25T14:47:48.420Z,65.77
2018-11-25T14:50:19.226Z,63.20
2018-11-25T14:52:48.932Z,63.90
2018-11-25T14:55:17.743Z,70.00
2018-11-25T14:57:46.298Z,66.43
2018-11-25T15:00:17.320Z,68.27
2018-11-25T15:02:47.492Z,69.70
2018-11-25T15:05:49.649Z,69.10
2018-11-25T15:08:20.198Z,67.80
2018-11-25T15:10:48.753Z,66.67
2018-11-25T15:13:17.925Z,68.17
2018-11-25T15:15:46.425Z,69.17
2018-11-25T15:18:15.041Z,73.17
2018-11-25T15:20:43.542Z,73.00
2018-11-25T15:23:14.257Z,72.17
2018-11-25T15:25:47.402Z,72.43
2018-11-25T15:28:15.927Z,69.10
2018-11-25T15:30:44.392Z,71.70
2018-11-25T15:33:12.964Z,72.07
2018-11-25T15:35:41.437Z,73.50
2018-11-25T15:38:10.059Z,68.20
2018-11-25T15:40:39.085Z,70.57
2018-11-25T15:43:08.432Z,68.80
2018-11-25T15:45:37.349Z,69.00
2018-11-25T15:48:16.932Z,67.03
2018-11-25T15:50:45.414Z,67.00
2018-11-25T15:53:13.915Z,69.77
2018-11-25T15:55:43.339Z,65.03
2018-11-25T15:58:11.913Z,63.93
2018-11-25T16:00:40.391Z,64.63
2018-11-25T16:03:10.119Z,66.13
2018-11-25T16:05:40.548Z,60.70
2018-11-25T16:08:09.060Z,64.20
2018-11-25T16:10:37.757Z,60.20
2018-11-25T16:13:07.547Z,61.43
2018-11-25T16:15:36.109Z,61.03
2018-11-25T16:18:04.729Z,60.07
2018-11-25T16:20:33.164Z,61.57
2018-11-25T16:23:02.933Z,58.10
2018-11-25T16:25:48.758Z,58.07
2018-11-25T16:28:22.671Z,57.87
2018-11-25T16:30:51.183Z,53.97
2018-11-25T16:33:19.649Z,58.43
2018-11-25T16:35:48.693Z,57.03
2018-11-25T16:38:17.212Z,57.87
2018-11-25T16:40:45.725Z,58.03
2018-11-25T16:43:14.174Z,58.13
2018-11-25T16:45:42.621Z,57.07
2018-11-25T16:48:11.050Z,55.57
2018-11-25T16:50:39.500Z,59.10
2018-11-25T16:53:08.073Z,62.10
2018-11-25T16:55:36.512Z,59.80
2018-11-25T16:58:05.926Z,57.80
2018-11-25T17:00:35.465Z,57.37
2018-11-25T17:03:03.950Z,57.90
2018-11-25T17:05:34.221Z,58.60
2018-11-25T17:08:09.386Z,60.60
2018-11-25T17:10:37.879Z,58.73
2018-11-25T17:13:06.908Z,57.37
2018-11-25T17:15:36.363Z,60.43
2018-11-25T17:18:05.026Z,63.33
2018-11-25T17:20:33.458Z,67.03
2018-11-25T17:23:01.916Z,69.17
2018-11-25T17:25:30.358Z,69.77
2018-11-25T17:27:58.798Z,66.77
2018-11-25T17:30:27.396Z,69.90
2018-11-25T17:32:55.947Z,69.10
2018-11-25T17:35:25.911Z,70.87
2018-11-25T17:37:54.498Z,72.60
2018-11-25T17:40:23.491Z,74.13
2018-11-25T17:42:51.979Z,71.90
2018-11-25T17:45:20.391Z,75.47
2018-11-25T17:47:48.920Z,74.10
2018-11-25T17:50:20.018Z,72.07
2018-11-25T17:52:49.092Z,72.70
2018-11-25T17:55:18.208Z,70.30
2018-11-25T17:57:47.280Z,72.80
2018-11-25T18:00:29.252Z,73.33
2018-11-25T18:02:57.710Z,72.27
2018-11-25T18:05:26.208Z,73.83
2018-11-25T18:07:55.936Z,69.53
2018-11-25T18:10:24.437Z,71.27
2018-11-25T18:12:52.993Z,69.90
2018-11-25T18:15:22.111Z,70.57
2018-11-25T18:17:54.102Z,69.83
2018-11-25T18:20:23.279Z,69.43
2018-11-25T18:22:51.839Z,69.80
2018-11-25T18:25:20.319Z,66.23
2018-11-25T18:27:48.874Z,65.60
2018-11-25T18:30:18.250Z,68.17
2018-11-25T18:32:47.320Z,66.13
2018-11-25T18:35:16.449Z,66.97
2018-11-25T18:37:45.056Z,64.70
2018-11-25T18:40:14.103Z,67.57
2018-11-25T18:42:43.425Z,66.80
2018-11-25T18:45:13.611Z,64.77
2018-11-25T18:47:43.132Z,65.10
2018-11-25T18:50:13.134Z,67.77
2018-11-25T18:52:42.281Z,63.13
2018-11-25T18:55:10.029Z,66.00
2018-11-25T18:57:38.704Z,63.40
2018-11-25T19:00:10.201Z,64.80
2018-11-25T19:02:42.091Z,60.60
2018-11-25T19:05:10.901Z,60.63
2018-11-25T19:07:39.560Z,60.57
2018-11-25T19:10:16.894Z,62.13
2018-11-25T19:12:45.421Z,60.90
2018-11-25T19:15:16.418Z,58.17
2018-11-25T19:17:45.152Z,60.87
2018-11-25T19:20:14.989Z,59.67
2018-11-25T19:22:43.512Z,61.70
2018-11-25T19:25:13.709Z,59.50
2018-11-25T19:27:42.278Z,60.93
2018-11-25T19:30:14.585Z,59.67
2018-11-25T19:32:44.951Z,59.93
2018-11-25T19:35:14.349Z,60.07
2018-11-25T19:37:43.464Z,60.03
2018-11-25T19:40:18.484Z,57.97
2018-11-25T19:42:47.100Z,60.53
2018-11-25T19:45:17.816Z,59.90
2018-11-25T19:47:46.526Z,59.83
2018-11-25T19:50:32.228Z,59.73
2018-11-25T19:53:00.732Z,57.47
2018-11-25T19:55:29.350Z,59.23
2018-11-25T19:57:58.476Z,60.80
2018-11-25T20:00:27.716Z,59.80
2018-11-25T20:02:56.330Z,55.80
2018-11-25T20:05:24.972Z,57.60
2018-11-25T20:07:53.529Z,56.33
2018-11-25T20:10:23.407Z,57.13
2018-11-25T20:12:56.140Z,54.10
2018-11-25T20:15:24.718Z,53.60
2018-11-25T20:17:54.594Z,57.43
2018-11-25T20:20:23.570Z,57.27
2018-11-25T20:22:52.643Z,55.37
2018-11-25T20:25:21.331Z,56.13
2018-11-25T20:27:52.222Z,52.83
2018-11-25T20:30:25.289Z,55.33
2018-11-25T20:32:59.306Z,55.83
2018-11-25T20:35:27.806Z,54.73
2018-11-25T20:38:01.751Z,55.70
2018-11-25T20:40:33.047Z,56.03
2018-11-25T20:43:01.639Z,54.77
2018-11-25T20:45:39.098Z,53.77
2018-11-25T20:48:04.781Z,54.00
2018-11-25T20:50:33.603Z,50.53
2018-11-25T20:53:07.569Z,52.47
2018-11-25T20:55:38.401Z,52.77
2018-11-25T20:58:08.269Z,52.10
2018-11-25T21:00:37.079Z,50.30
2018-11-25T21:03:07.577Z,52.43
2018-11-25T21:05:36.050Z,53.00
2018-11-25T21:08:04.581Z,56.13
2018-11-25T21:10:33.146Z,55.23
2018-11-25T21:13:01.666Z,52.07
2018-11-25T21:15:30.139Z,52.30
2018-11-25T21:17:58.626Z,54.17
2018-11-25T21:20:27.135Z,52.33
2018-11-25T21:22:55.569Z,53.60
2018-11-25T21:25:24.413Z,52.30
2018-11-25T21:27:52.884Z,52.30
2018-11-25T21:30:25.595Z,50.93
2018-11-25T21:32:56.868Z,51.07
2018-11-25T21:35:25.385Z,52.03
2018-11-25T21:37:53.820Z,51.73
2018-11-25T21:40:23.469Z,53.47
2018-11-25T21:42:52.255Z,50.63
2018-11-25T21:45:21.554Z,48.67
2018-11-25T21:47:50.767Z,47.80
2018-11-25T21:50:23.851Z,49.53
2018-11-25T21:52:52.519Z,49.07
2018-11-25T21:55:21.388Z,50.30
2018-11-25T21:57:49.915Z,49.67
2018-11-25T22:00:19.944Z,51.10
2018-11-25T22:02:48.408Z,49.63
2018-11-25T22:05:17.134Z,49.27
2018-11-25T22:07:45.648Z,48.77
2018-11-25T22:10:15.891Z,48.33
2018-11-25T22:12:44.923Z,49.07
2018-11-25T22:15:14.764Z,48.92
2018-11-25T22:17:43.346Z,49.00
2018-11-25T22:20:13.014Z,50.07
2018-11-25T22:22:41.633Z,50.83
2018-11-25T22:25:11.220Z,48.97
2018-11-25T22:27:39.711Z,47.60
2018-11-25T22:30:14.300Z,47.50
2018-11-25T22:32:42.728Z,48.23
2018-11-25T22:35:13.252Z,45.90
2018-11-25T22:37:42.146Z,48.17
2018-11-25T22:40:11.342Z,47.10
2018-11-25T22:42:40.621Z,50.37
2018-11-25T22:45:13.862Z,50.20
2018-11-25T22:47:42.351Z,49.67
2018-11-25T22:50:11.832Z,49.97
2018-11-25T22:52:40.347Z,48.57
2018-11-25T22:55:10.702Z,50.33
2018-11-25T22:57:39.168Z,49.87
2018-11-25T23:00:20.218Z,49.87
2018-11-25T23:02:48.792Z,48.60
2018-11-25T23:05:28.997Z,49.83
2018-11-25T23:07:57.476Z,50.27
2018-11-25T23:10:26.133Z,53.23
2018-11-25T23:12:54.731Z,50.73
2018-11-25T23:15:23.320Z,54.57
2018-11-25T23:17:51.842Z,53.83
2018-11-25T23:20:20.279Z,52.63
2018-11-25T23:22:48.700Z,51.00
2018-11-25T23:25:17.167Z,52.40
2018-11-25T23:27:45.641Z,52.87
2018-11-25T23:30:14.117Z,54.30
2018-11-25T23:32:42.565Z,49.60
2018-11-25T23:35:17.417Z,55.07
2018-11-25T23:37:46.394Z,54.07
2018-11-25T23:40:14.852Z,52.17
2018-11-25T23:42:43.497Z,53.20
2018-11-25T23:45:13.502Z,51.53
2018-11-25T23:47:42.831Z,53.70
2018-11-25T23:50:12.673Z,53.17
2018-11-25T23:52:41.910Z,53.13
2018-11-25T23:55:12.360Z,51.77
2018-11-25T23:57:41.059Z,53.63
